sensor_id;sensor_type;location;lat;lon;timestamp;P1;durP1;ratioP1;P2;durP2;ratioP2
3597;SDS011;1813;52.016;8.714;2023-05-29T00:01:20;11.90;;;5.77;;
3597;SDS011;1813;52.016;8.714;2023-05-29T00:03:54;16.57;;;6.27;;
3597;SDS011;1813;52.016;8.714;2023-05-29T00:06:28;14.20;;;5.97;;
3597;SDS011;1813;52.016;8.714;2023-05-29T00:09:02;15.87;;;6.07;;
3597;SDS011;1813;52.016;8.714;2023-05-29T00:11:36;16.27;;;5.53;;
3597;SDS011;1813;52.016;8.714;2023-05-29T00:14:14;17.33;;;5.77;;
3597;SDS011;1813;52.016;8.714;2023-05-29T00:16:49;16.80;;;5.70;;
3597;SDS011;1813;52.016;8.714;2023-05-29T00:19:24;15.17;;;5.60;;
3597;SDS011;1813;52.016;8.714;2023-05-29T00:21:57;20.50;;;5.70;;
3597;SDS011;1813;52.016;8.714;2023-05-29T00:24:31;15.40;;;5.53;;
3597;SDS011;1813;52.016;8.714;2023-05-29T00:27:08;18.63;;;5.47;;
3597;SDS011;1813;52.016;8.714;2023-05-29T00:29:45;13.93;;;5.20;;
3597;SDS011;1813;52.016;8.714;2023-05-29T00:32:18;17.87;;;5.77;;
3597;SDS011;1813;52.016;8.714;2023-05-29T00:34:52;18.60;;;5.27;;
3597;SDS011;1813;52.016;8.714;2023-05-29T00:37:26;17.70;;;5.10;;
3597;SDS011;1813;52.016;8.714;2023-05-29T00:40:00;18.47;;;5.47;;
3597;SDS011;1813;52.016;8.714;2023-05-29T00:42:34;16.00;;;5.40;;
3597;SDS011;1813;52.016;8.714;2023-05-29T00:45:12;19.13;;;5.27;;
3597;SDS011;1813;52.016;8.714;2023-05-29T00:47:46;17.63;;;4.97;;
3597;SDS011;1813;52.016;8.714;2023-05-29T00:50:20;13.60;;;5.20;;
3597;SDS011;1813;52.016;8.714;2023-05-29T00:52:57;14.30;;;4.87;;
3597;SDS011;1813;52.016;8.714;2023-05-29T00:55:33;19.60;;;4.83;;
3597;SDS011;1813;52.016;8.714;2023-05-29T00:58:07;21.37;;;4.60;;
3597;SDS011;1813;52.016;8.714;2023-05-29T01:00:44;15.50;;;4.60;;
3597;SDS011;1813;52.016;8.714;2023-05-29T01:03:18;16.87;;;4.60;;
3597;SDS011;1813;52.016;8.714;2023-05-29T01:05:53;14.77;;;4.50;;
3597;SDS011;1813;52.016;8.714;2023-05-29T01:08:28;15.97;;;4.20;;
3597;SDS011;1813;52.016;8.714;2023-05-29T01:11:03;15.73;;;4.60;;
3597;SDS011;1813;52.016;8.714;2023-05-29T01:13:44;18.97;;;4.33;;
3597;SDS011;1813;52.016;8.714;2023-05-29T01:16:26;13.80;;;4.50;;
3597;SDS011;1813;52.016;8.714;2023-05-29T01:19:10;15.67;;;4.60;;
3597;SDS011;1813;52.016;8.714;2023-05-29T01:21:56;13.70;;;4.07;;
3597;SDS011;1813;52.016;8.714;2023-05-29T01:24:41;17.97;;;4.60;;
3597;SDS011;1813;52.016;8.714;2023-05-29T01:27:24;19.90;;;4.57;;
3597;SDS011;1813;52.016;8.714;2023-05-29T01:30:03;16.40;;;4.43;;
3597;SDS011;1813;52.016;8.714;2023-05-29T01:32:38;11.63;;;4.40;;
3597;SDS011;1813;52.016;8.714;2023-05-29T01:35:13;12.77;;;4.50;;
3597;SDS011;1813;52.016;8.714;2023-05-29T01:37:47;15.57;;;4.60;;
3597;SDS011;1813;52.016;8.714;2023-05-29T01:40:20;15.30;;;4.57;;
3597;SDS011;1813;52.016;8.714;2023-05-29T01:42:59;14.23;;;4.70;;
3597;SDS011;1813;52.016;8.714;2023-05-29T01:45:32;19.30;;;3.90;;
3597;SDS011;1813;52.016;8.714;2023-05-29T01:48:07;15.10;;;3.93;;
3597;SDS011;1813;52.016;8.714;2023-05-29T01:50:41;13.70;;;4.00;;
3597;SDS011;1813;52.016;8.714;2023-05-29T01:53:18;31.03;;;4.83;;
3597;SDS011;1813;52.016;8.714;2023-05-29T01:55:53;18.67;;;4.97;;
3597;SDS011;1813;52.016;8.714;2023-05-29T01:58:30;21.50;;;4.70;;
3597;SDS011;1813;52.016;8.714;2023-05-29T02:01:05;15.53;;;4.50;;
3597;SDS011;1813;52.016;8.714;2023-05-29T02:03:39;16.50;;;4.33;;
3597;SDS011;1813;52.016;8.714;2023-05-29T02:06:12;17.10;;;4.80;;
3597;SDS011;1813;52.016;8.714;2023-05-29T02:08:46;18.77;;;4.70;;
3597;SDS011;1813;52.016;8.714;2023-05-29T02:11:20;10.43;;;4.17;;
3597;SDS011;1813;52.016;8.714;2023-05-29T02:13:56;15.47;;;4.77;;
3597;SDS011;1813;52.016;8.714;2023-05-29T02:16:32;16.80;;;4.73;;
3597;SDS011;1813;52.016;8.714;2023-05-29T02:19:06;15.83;;;4.40;;
3597;SDS011;1813;52.016;8.714;2023-05-29T02:21:40;14.97;;;4.13;;
3597;SDS011;1813;52.016;8.714;2023-05-29T02:24:14;17.50;;;4.37;;
3597;SDS011;1813;52.016;8.714;2023-05-29T02:26:48;11.07;;;3.90;;
3597;SDS011;1813;52.016;8.714;2023-05-29T02:29:24;15.40;;;4.47;;
3597;SDS011;1813;52.016;8.714;2023-05-29T02:31:59;14.97;;;4.10;;
3597;SDS011;1813;52.016;8.714;2023-05-29T02:34:33;14.33;;;4.00;;
3597;SDS011;1813;52.016;8.714;2023-05-29T02:37:06;22.30;;;4.90;;
3597;SDS011;1813;52.016;8.714;2023-05-29T02:39:40;12.23;;;3.87;;
3597;SDS011;1813;52.016;8.714;2023-05-29T02:42:14;16.07;;;3.97;;
3597;SDS011;1813;52.016;8.714;2023-05-29T02:44:50;14.90;;;4.17;;
3597;SDS011;1813;52.016;8.714;2023-05-29T02:47:25;15.33;;;4.30;;
3597;SDS011;1813;52.016;8.714;2023-05-29T02:49:59;19.83;;;4.57;;
3597;SDS011;1813;52.016;8.714;2023-05-29T02:52:33;14.27;;;4.27;;
3597;SDS011;1813;52.016;8.714;2023-05-29T02:55:07;15.33;;;4.53;;
3597;SDS011;1813;52.016;8.714;2023-05-29T02:57:41;13.00;;;3.97;;
3597;SDS011;1813;52.016;8.714;2023-05-29T03:00:17;13.23;;;4.53;;
3597;SDS011;1813;52.016;8.714;2023-05-29T03:02:51;15.33;;;4.20;;
3597;SDS011;1813;52.016;8.714;2023-05-29T03:05:25;15.90;;;4.33;;
3597;SDS011;1813;52.016;8.714;2023-05-29T03:07:59;12.63;;;4.17;;
3597;SDS011;1813;52.016;8.714;2023-05-29T03:10:33;14.97;;;4.47;;
3597;SDS011;1813;52.016;8.714;2023-05-29T03:13:07;18.70;;;4.00;;
3597;SDS011;1813;52.016;8.714;2023-05-29T03:15:48;12.63;;;4.30;;
3597;SDS011;1813;52.016;8.714;2023-05-29T03:18:27;13.40;;;4.53;;
3597;SDS011;1813;52.016;8.714;2023-05-29T03:21:00;12.67;;;4.13;;
3597;SDS011;1813;52.016;8.714;2023-05-29T03:23:37;20.97;;;4.20;;
3597;SDS011;1813;52.016;8.714;2023-05-29T03:26:11;19.43;;;5.00;;
3597;SDS011;1813;52.016;8.714;2023-05-29T03:28:47;15.83;;;4.50;;
3597;SDS011;1813;52.016;8.714;2023-05-29T03:31:25;13.57;;;4.27;;
3597;SDS011;1813;52.016;8.714;2023-05-29T03:33:59;20.63;;;4.70;;
3597;SDS011;1813;52.016;8.714;2023-05-29T03:36:53;25.17;;;5.03;;
3597;SDS011;1813;52.016;8.714;2023-05-29T03:39:28;21.50;;;4.60;;
3597;SDS011;1813;52.016;8.714;2023-05-29T03:42:03;14.40;;;4.43;;
3597;SDS011;1813;52.016;8.714;2023-05-29T03:44:37;16.40;;;4.40;;
3597;SDS011;1813;52.016;8.714;2023-05-29T03:47:15;18.50;;;4.20;;
3597;SDS011;1813;52.016;8.714;2023-05-29T03:49:51;24.03;;;4.80;;
3597;SDS011;1813;52.016;8.714;2023-05-29T03:52:25;22.63;;;4.53;;
3597;SDS011;1813;52.016;8.714;2023-05-29T03:55:00;24.33;;;4.50;;
3597;SDS011;1813;52.016;8.714;2023-05-29T03:57:34;20.47;;;4.83;;
3597;SDS011;1813;52.016;8.714;2023-05-29T04:00:08;16.57;;;4.73;;
3597;SDS011;1813;52.016;8.714;2023-05-29T04:02:46;23.40;;;4.87;;
3597;SDS011;1813;52.016;8.714;2023-05-29T04:05:20;20.00;;;5.03;;
3597;SDS011;1813;52.016;8.714;2023-05-29T04:07:53;17.97;;;5.10;;
3597;SDS011;1813;52.016;8.714;2023-05-29T04:10:27;16.20;;;4.30;;
3597;SDS011;1813;52.016;8.714;2023-05-29T04:13:04;16.60;;;4.37;;
3597;SDS011;1813;52.016;8.714;2023-05-29T04:15:39;19.83;;;4.30;;
3597;SDS011;1813;52.016;8.714;2023-05-29T04:18:15;16.33;;;3.93;;
3597;SDS011;1813;52.016;8.714;2023-05-29T04:20:49;24.07;;;5.13;;
3597;SDS011;1813;52.016;8.714;2023-05-29T04:23:24;20.43;;;4.37;;
3597;SDS011;1813;52.016;8.714;2023-05-29T04:25:58;17.10;;;4.20;;
3597;SDS011;1813;52.016;8.714;2023-05-29T04:28:35;19.53;;;4.70;;
3597;SDS011;1813;52.016;8.714;2023-05-29T04:31:10;13.53;;;4.03;;
3597;SDS011;1813;52.016;8.714;2023-05-29T04:33:49;18.93;;;4.83;;
3597;SDS011;1813;52.016;8.714;2023-05-29T04:36:25;19.53;;;4.50;;
3597;SDS011;1813;52.016;8.714;2023-05-29T04:39:12;27.23;;;5.30;;
3597;SDS011;1813;52.016;8.714;2023-05-29T04:41:46;18.63;;;4.67;;
3597;SDS011;1813;52.016;8.714;2023-05-29T04:44:24;23.93;;;4.93;;
3597;SDS011;1813;52.016;8.714;2023-05-29T04:46:59;15.47;;;4.10;;
3597;SDS011;1813;52.016;8.714;2023-05-29T04:49:36;18.20;;;5.10;;
3597;SDS011;1813;52.016;8.714;2023-05-29T04:52:10;20.00;;;4.40;;
3597;SDS011;1813;52.016;8.714;2023-05-29T04:54:45;21.40;;;4.53;;
3597;SDS011;1813;52.016;8.714;2023-05-29T04:57:20;12.70;;;4.13;;
3597;SDS011;1813;52.016;8.714;2023-05-29T04:59:54;18.40;;;4.70;;
3597;SDS011;1813;52.016;8.714;2023-05-29T05:02:28;16.50;;;4.00;;
3597;SDS011;1813;52.016;8.714;2023-05-29T05:05:05;23.10;;;4.80;;
3597;SDS011;1813;52.016;8.714;2023-05-29T05:07:39;16.20;;;4.20;;
3597;SDS011;1813;52.016;8.714;2023-05-29T05:10:13;17.87;;;4.37;;
3597;SDS011;1813;52.016;8.714;2023-05-29T05:12:47;15.20;;;4.10;;
3597;SDS011;1813;52.016;8.714;2023-05-29T05:15:24;17.63;;;4.10;;
3597;SDS011;1813;52.016;8.714;2023-05-29T05:17:58;16.70;;;4.53;;
3597;SDS011;1813;52.016;8.714;2023-05-29T05:20:36;18.23;;;4.50;;
3597;SDS011;1813;52.016;8.714;2023-05-29T05:23:10;20.87;;;4.63;;
3597;SDS011;1813;52.016;8.714;2023-05-29T05:25:44;21.30;;;4.50;;
3597;SDS011;1813;52.016;8.714;2023-05-29T05:28:18;19.97;;;4.50;;
3597;SDS011;1813;52.016;8.714;2023-05-29T05:30:51;14.10;;;4.20;;
3597;SDS011;1813;52.016;8.714;2023-05-29T05:33:25;20.87;;;4.07;;
3597;SDS011;1813;52.016;8.714;2023-05-29T05:36:02;16.90;;;4.47;;
3597;SDS011;1813;52.016;8.714;2023-05-29T05:38:37;21.47;;;4.33;;
3597;SDS011;1813;52.016;8.714;2023-05-29T05:41:11;20.50;;;4.30;;
3597;SDS011;1813;52.016;8.714;2023-05-29T05:43:45;19.10;;;4.37;;
3597;SDS011;1813;52.016;8.714;2023-05-29T05:46:30;17.87;;;4.03;;
3597;SDS011;1813;52.016;8.714;2023-05-29T05:49:03;18.73;;;4.90;;
3597;SDS011;1813;52.016;8.714;2023-05-29T05:51:40;21.47;;;4.23;;
3597;SDS011;1813;52.016;8.714;2023-05-29T05:54:14;16.70;;;3.90;;
3597;SDS011;1813;52.016;8.714;2023-05-29T05:56:48;17.00;;;4.27;;
3597;SDS011;1813;52.016;8.714;2023-05-29T05:59:23;21.67;;;4.50;;
3597;SDS011;1813;52.016;8.714;2023-05-29T06:01:57;18.50;;;4.47;;
3597;SDS011;1813;52.016;8.714;2023-05-29T06:04:33;24.17;;;4.83;;
3597;SDS011;1813;52.016;8.714;2023-05-29T06:07:09;18.40;;;4.30;;
3597;SDS011;1813;52.016;8.714;2023-05-29T06:09:43;15.67;;;4.07;;
3597;SDS011;1813;52.016;8.714;2023-05-29T06:12:17;17.20;;;3.63;;
3597;SDS011;1813;52.016;8.714;2023-05-29T06:15:01;16.40;;;4.23;;
3597;SDS011;1813;52.016;8.714;2023-05-29T06:17:34;22.87;;;4.60;;
3597;SDS011;1813;52.016;8.714;2023-05-29T06:20:09;18.47;;;4.03;;
3597;SDS011;1813;52.016;8.714;2023-05-29T06:22:47;13.53;;;4.00;;
3597;SDS011;1813;52.016;8.714;2023-05-29T06:25:21;14.00;;;3.63;;
3597;SDS011;1813;52.016;8.714;2023-05-29T06:28:02;13.37;;;3.70;;
3597;SDS011;1813;52.016;8.714;2023-05-29T06:30:36;14.97;;;4.20;;
3597;SDS011;1813;52.016;8.714;2023-05-29T06:33:11;18.03;;;3.80;;
3597;SDS011;1813;52.016;8.714;2023-05-29T06:35:46;18.87;;;4.33;;
3597;SDS011;1813;52.016;8.714;2023-05-29T06:38:22;19.73;;;4.03;;
3597;SDS011;1813;52.016;8.714;2023-05-29T06:40:56;15.70;;;4.10;;
3597;SDS011;1813;52.016;8.714;2023-05-29T06:43:31;17.83;;;4.83;;
3597;SDS011;1813;52.016;8.714;2023-05-29T06:46:07;17.67;;;4.50;;
3597;SDS011;1813;52.016;8.714;2023-05-29T06:48:41;16.90;;;3.50;;
3597;SDS011;1813;52.016;8.714;2023-05-29T06:51:17;17.03;;;3.90;;
3597;SDS011;1813;52.016;8.714;2023-05-29T06:54:13;19.37;;;4.33;;
3597;SDS011;1813;52.016;8.714;2023-05-29T06:56:47;17.87;;;4.33;;
3597;SDS011;1813;52.016;8.714;2023-05-29T06:59:21;21.90;;;4.73;;
3597;SDS011;1813;52.016;8.714;2023-05-29T07:01:55;15.90;;;4.13;;
3597;SDS011;1813;52.016;8.714;2023-05-29T07:04:30;17.43;;;4.80;;
3597;SDS011;1813;52.016;8.714;2023-05-29T07:07:04;14.37;;;4.00;;
3597;SDS011;1813;52.016;8.714;2023-05-29T07:09:42;14.53;;;4.10;;
3597;SDS011;1813;52.016;8.714;2023-05-29T07:12:16;13.93;;;4.00;;
3597;SDS011;1813;52.016;8.714;2023-05-29T07:14:50;15.23;;;4.20;;
3597;SDS011;1813;52.016;8.714;2023-05-29T07:17:24;18.70;;;4.80;;
3597;SDS011;1813;52.016;8.714;2023-05-29T07:20:09;24.07;;;4.80;;
3597;SDS011;1813;52.016;8.714;2023-05-29T07:22:45;15.23;;;4.00;;
3597;SDS011;1813;52.016;8.714;2023-05-29T07:25:22;13.87;;;3.87;;
3597;SDS011;1813;52.016;8.714;2023-05-29T07:27:57;19.93;;;4.33;;
3597;SDS011;1813;52.016;8.714;2023-05-29T07:30:31;22.33;;;4.93;;
3597;SDS011;1813;52.016;8.714;2023-05-29T07:33:05;19.43;;;3.80;;
3597;SDS011;1813;52.016;8.714;2023-05-29T07:35:39;14.20;;;3.60;;
3597;SDS011;1813;52.016;8.714;2023-05-29T07:38:13;16.10;;;4.00;;
3597;SDS011;1813;52.016;8.714;2023-05-29T07:40:50;17.00;;;3.80;;
3597;SDS011;1813;52.016;8.714;2023-05-29T07:43:34;17.13;;;4.20;;
3597;SDS011;1813;52.016;8.714;2023-05-29T07:46:10;10.80;;;3.70;;
3597;SDS011;1813;52.016;8.714;2023-05-29T07:48:46;18.50;;;4.03;;
3597;SDS011;1813;52.016;8.714;2023-05-29T07:51:22;12.50;;;3.83;;
3597;SDS011;1813;52.016;8.714;2023-05-29T07:53:56;11.63;;;3.97;;
3597;SDS011;1813;52.016;8.714;2023-05-29T07:56:32;14.40;;;3.53;;
3597;SDS011;1813;52.016;8.714;2023-05-29T07:59:07;18.10;;;4.47;;
3597;SDS011;1813;52.016;8.714;2023-05-29T08:01:41;15.77;;;4.60;;
3597;SDS011;1813;52.016;8.714;2023-05-29T08:04:29;15.37;;;3.57;;
3597;SDS011;1813;52.016;8.714;2023-05-29T08:07:04;15.50;;;4.00;;
3597;SDS011;1813;52.016;8.714;2023-05-29T08:09:38;14.53;;;4.00;;
3597;SDS011;1813;52.016;8.714;2023-05-29T08:12:14;15.97;;;4.10;;
3597;SDS011;1813;52.016;8.714;2023-05-29T08:14:48;15.20;;;7.30;;
3597;SDS011;1813;52.016;8.714;2023-05-29T08:17:22;12.87;;;4.27;;
3597;SDS011;1813;52.016;8.714;2023-05-29T08:19:56;10.97;;;3.50;;
3597;SDS011;1813;52.016;8.714;2023-05-29T08:22:30;12.90;;;3.63;;
3597;SDS011;1813;52.016;8.714;2023-05-29T08:25:04;13.03;;;3.93;;
3597;SDS011;1813;52.016;8.714;2023-05-29T08:27:41;17.77;;;4.00;;
3597;SDS011;1813;52.016;8.714;2023-05-29T08:30:15;13.53;;;3.90;;
3597;SDS011;1813;52.016;8.714;2023-05-29T08:32:49;16.47;;;3.57;;
3597;SDS011;1813;52.016;8.714;2023-05-29T08:35:23;13.77;;;3.70;;
3597;SDS011;1813;52.016;8.714;2023-05-29T08:37:57;15.10;;;3.83;;
3597;SDS011;1813;52.016;8.714;2023-05-29T08:40:31;11.20;;;3.50;;
3597;SDS011;1813;52.016;8.714;2023-05-29T08:43:07;18.30;;;3.93;;
3597;SDS011;1813;52.016;8.714;2023-05-29T08:45:45;19.27;;;4.10;;
3597;SDS011;1813;52.016;8.714;2023-05-29T08:48:26;17.03;;;4.00;;
3597;SDS011;1813;52.016;8.714;2023-05-29T08:51:02;13.03;;;3.50;;
3597;SDS011;1813;52.016;8.714;2023-05-29T08:53:37;15.33;;;3.90;;
3597;SDS011;1813;52.016;8.714;2023-05-29T08:56:12;13.00;;;4.03;;
3597;SDS011;1813;52.016;8.714;2023-05-29T08:58:48;12.80;;;3.90;;
3597;SDS011;1813;52.016;8.714;2023-05-29T09:01:23;16.33;;;3.90;;
3597;SDS011;1813;52.016;8.714;2023-05-29T09:03:58;13.63;;;3.40;;
3597;SDS011;1813;52.016;8.714;2023-05-29T09:06:32;15.23;;;4.03;;
3597;SDS011;1813;52.016;8.714;2023-05-29T09:09:06;16.33;;;3.43;;
3597;SDS011;1813;52.016;8.714;2023-05-29T09:11:40;13.70;;;3.10;;
3597;SDS011;1813;52.016;8.714;2023-05-29T09:17:11;12.47;;;3.47;;
3597;SDS011;1813;52.016;8.714;2023-05-29T09:19:48;16.63;;;4.17;;
3597;SDS011;1813;52.016;8.714;2023-05-29T09:22:23;12.23;;;3.20;;
3597;SDS011;1813;52.016;8.714;2023-05-29T09:24:57;10.80;;;3.40;;
3597;SDS011;1813;52.016;8.714;2023-05-29T09:27:31;14.93;;;3.83;;
3597;SDS011;1813;52.016;8.714;2023-05-29T09:30:08;15.30;;;3.20;;
3597;SDS011;1813;52.016;8.714;2023-05-29T09:32:43;11.97;;;3.60;;
3597;SDS011;1813;52.016;8.714;2023-05-29T09:35:18;9.83;;;3.37;;
3597;SDS011;1813;52.016;8.714;2023-05-29T09:37:52;13.60;;;4.10;;
3597;SDS011;1813;52.016;8.714;2023-05-29T09:40:26;12.27;;;3.40;;
3597;SDS011;1813;52.016;8.714;2023-05-29T09:43:03;14.83;;;3.67;;
3597;SDS011;1813;52.016;8.714;2023-05-29T09:45:41;13.10;;;3.90;;
3597;SDS011;1813;52.016;8.714;2023-05-29T09:48:16;16.00;;;3.90;;
3597;SDS011;1813;52.016;8.714;2023-05-29T09:50:52;12.43;;;3.40;;
3597;SDS011;1813;52.016;8.714;2023-05-29T09:53:28;13.73;;;3.57;;
3597;SDS011;1813;52.016;8.714;2023-05-29T09:56:02;9.87;;;3.60;;
3597;SDS011;1813;52.016;8.714;2023-05-29T09:58:36;13.53;;;3.47;;
3597;SDS011;1813;52.016;8.714;2023-05-29T10:01:18;13.33;;;3.93;;
3597;SDS011;1813;52.016;8.714;2023-05-29T10:03:53;15.43;;;4.10;;
3597;SDS011;1813;52.016;8.714;2023-05-29T10:06:26;10.40;;;3.23;;
3597;SDS011;1813;52.016;8.714;2023-05-29T10:09:02;9.63;;;3.43;;
3597;SDS011;1813;52.016;8.714;2023-05-29T10:11:41;15.00;;;3.40;;
3597;SDS011;1813;52.016;8.714;2023-05-29T10:14:17;15.90;;;3.57;;
3597;SDS011;1813;52.016;8.714;2023-05-29T10:16:56;11.17;;;3.13;;
3597;SDS011;1813;52.016;8.714;2023-05-29T10:19:31;9.97;;;3.60;;
3597;SDS011;1813;52.016;8.714;2023-05-29T10:22:06;13.83;;;3.37;;
3597;SDS011;1813;52.016;8.714;2023-05-29T10:24:40;10.50;;;3.30;;
3597;SDS011;1813;52.016;8.714;2023-05-29T10:27:15;11.50;;;3.30;;
3597;SDS011;1813;52.016;8.714;2023-05-29T10:29:49;11.80;;;3.70;;
3597;SDS011;1813;52.016;8.714;2023-05-29T10:32:32;10.97;;;3.50;;
3597;SDS011;1813;52.016;8.714;2023-05-29T10:35:13;15.60;;;3.20;;
3597;SDS011;1813;52.016;8.714;2023-05-29T10:37:52;5.80;;;2.93;;
3597;SDS011;1813;52.016;8.714;2023-05-29T10:40:33;10.50;;;3.40;;
3597;SDS011;1813;52.016;8.714;2023-05-29T10:43:07;10.33;;;3.40;;
3597;SDS011;1813;52.016;8.714;2023-05-29T10:45:47;11.17;;;3.50;;
3597;SDS011;1813;52.016;8.714;2023-05-29T10:51:24;7.67;;;2.97;;
3597;SDS011;1813;52.016;8.714;2023-05-29T10:54:01;11.33;;;3.73;;
3597;SDS011;1813;52.016;8.714;2023-05-29T10:56:39;9.97;;;3.30;;
3597;SDS011;1813;52.016;8.714;2023-05-29T10:59:13;10.00;;;3.33;;
3597;SDS011;1813;52.016;8.714;2023-05-29T11:01:47;10.20;;;3.30;;
3597;SDS011;1813;52.016;8.714;2023-05-29T11:04:28;10.70;;;3.17;;
3597;SDS011;1813;52.016;8.714;2023-05-29T11:07:03;11.63;;;3.10;;
3597;SDS011;1813;52.016;8.714;2023-05-29T11:09:39;8.47;;;3.63;;
3597;SDS011;1813;52.016;8.714;2023-05-29T11:12:16;10.53;;;3.10;;
3597;SDS011;1813;52.016;8.714;2023-05-29T11:15:04;18.20;;;3.40;;
3597;SDS011;1813;52.016;8.714;2023-05-29T11:17:43;7.63;;;3.43;;
3597;SDS011;1813;52.016;8.714;2023-05-29T11:20:35;10.13;;;3.63;;
3597;SDS011;1813;52.016;8.714;2023-05-29T11:23:14;12.00;;;3.47;;
3597;SDS011;1813;52.016;8.714;2023-05-29T11:25:49;8.00;;;3.33;;
3597;SDS011;1813;52.016;8.714;2023-05-29T11:28:24;11.73;;;3.57;;
3597;SDS011;1813;52.016;8.714;2023-05-29T11:30:58;10.10;;;3.67;;
3597;SDS011;1813;52.016;8.714;2023-05-29T11:33:35;10.00;;;3.07;;
3597;SDS011;1813;52.016;8.714;2023-05-29T11:36:16;10.47;;;3.60;;
3597;SDS011;1813;52.016;8.714;2023-05-29T11:38:51;8.23;;;3.07;;
3597;SDS011;1813;52.016;8.714;2023-05-29T11:41:26;7.50;;;2.70;;
3597;SDS011;1813;52.016;8.714;2023-05-29T11:44:00;10.83;;;3.40;;
3597;SDS011;1813;52.016;8.714;2023-05-29T11:46:36;8.07;;;3.43;;
3597;SDS011;1813;52.016;8.714;2023-05-29T11:49:10;7.27;;;2.80;;
3597;SDS011;1813;52.016;8.714;2023-05-29T11:51:47;10.97;;;3.60;;
3597;SDS011;1813;52.016;8.714;2023-05-29T11:54:21;7.90;;;3.00;;
3597;SDS011;1813;52.016;8.714;2023-05-29T11:56:55;10.77;;;3.57;;
3597;SDS011;1813;52.016;8.714;2023-05-29T11:59:30;8.00;;;3.17;;
3597;SDS011;1813;52.016;8.714;2023-05-29T12:02:04;8.60;;;3.10;;
3597;SDS011;1813;52.016;8.714;2023-05-29T12:04:38;6.90;;;3.07;;
3597;SDS011;1813;52.016;8.714;2023-05-29T12:07:21;7.00;;;3.07;;
3597;SDS011;1813;52.016;8.714;2023-05-29T12:09:55;10.07;;;3.33;;
3597;SDS011;1813;52.016;8.714;2023-05-29T12:12:29;7.73;;;3.20;;
3597;SDS011;1813;52.016;8.714;2023-05-29T12:15:05;11.27;;;3.30;;
3597;SDS011;1813;52.016;8.714;2023-05-29T12:17:39;7.53;;;3.03;;
3597;SDS011;1813;52.016;8.714;2023-05-29T12:20:14;9.13;;;3.00;;
3597;SDS011;1813;52.016;8.714;2023-05-29T12:25:35;9.00;;;2.77;;
3597;SDS011;1813;52.016;8.714;2023-05-29T12:28:11;7.20;;;3.20;;
3597;SDS011;1813;52.016;8.714;2023-05-29T12:30:49;7.43;;;3.17;;
3597;SDS011;1813;52.016;8.714;2023-05-29T12:33:27;11.80;;;3.00;;
3597;SDS011;1813;52.016;8.714;2023-05-29T12:36:03;7.23;;;3.33;;
3597;SDS011;1813;52.016;8.714;2023-05-29T12:38:48;9.37;;;3.20;;
3597;SDS011;1813;52.016;8.714;2023-05-29T12:41:25;5.37;;;2.67;;
3597;SDS011;1813;52.016;8.714;2023-05-29T12:44:00;8.40;;;2.80;;
3597;SDS011;1813;52.016;8.714;2023-05-29T12:46:35;14.20;;;3.57;;
3597;SDS011;1813;52.016;8.714;2023-05-29T12:49:11;14.73;;;3.47;;
3597;SDS011;1813;52.016;8.714;2023-05-29T12:51:46;7.50;;;3.40;;
3597;SDS011;1813;52.016;8.714;2023-05-29T12:54:23;8.40;;;3.00;;
3597;SDS011;1813;52.016;8.714;2023-05-29T12:56:56;9.90;;;3.60;;
3597;SDS011;1813;52.016;8.714;2023-05-29T12:59:31;8.10;;;3.20;;
3597;SDS011;1813;52.016;8.714;2023-05-29T13:02:05;7.93;;;3.30;;
3597;SDS011;1813;52.016;8.714;2023-05-29T13:04:40;6.60;;;3.37;;
3597;SDS011;1813;52.016;8.714;2023-05-29T13:07:13;7.63;;;3.60;;
3597;SDS011;1813;52.016;8.714;2023-05-29T13:09:50;9.00;;;3.50;;
3597;SDS011;1813;52.016;8.714;2023-05-29T13:12:23;9.07;;;3.50;;
3597;SDS011;1813;52.016;8.714;2023-05-29T13:14:57;10.63;;;3.20;;
3597;SDS011;1813;52.016;8.714;2023-05-29T13:17:31;9.93;;;3.40;;
3597;SDS011;1813;52.016;8.714;2023-05-29T13:20:06;11.23;;;3.50;;
3597;SDS011;1813;52.016;8.714;2023-05-29T13:22:42;8.73;;;3.60;;
3597;SDS011;1813;52.016;8.714;2023-05-29T13:25:19;11.10;;;3.33;;
3597;SDS011;1813;52.016;8.714;2023-05-29T13:27:54;8.80;;;3.37;;
3597;SDS011;1813;52.016;8.714;2023-05-29T13:30:27;14.23;;;3.73;;
3597;SDS011;1813;52.016;8.714;2023-05-29T13:33:01;8.50;;;3.63;;
3597;SDS011;1813;52.016;8.714;2023-05-29T13:35:35;7.50;;;3.47;;
3597;SDS011;1813;52.016;8.714;2023-05-29T13:38:09;9.77;;;3.20;;
3597;SDS011;1813;52.016;8.714;2023-05-29T13:40:45;7.77;;;3.10;;
3597;SDS011;1813;52.016;8.714;2023-05-29T13:43:19;7.53;;;3.33;;
3597;SDS011;1813;52.016;8.714;2023-05-29T13:45:53;9.57;;;3.20;;
3597;SDS011;1813;52.016;8.714;2023-05-29T13:48:27;15.00;;;3.33;;
3597;SDS011;1813;52.016;8.714;2023-05-29T13:51:00;15.00;;;3.50;;
3597;SDS011;1813;52.016;8.714;2023-05-29T13:53:34;7.07;;;3.53;;
3597;SDS011;1813;52.016;8.714;2023-05-29T13:56:10;12.50;;;3.63;;
3597;SDS011;1813;52.016;8.714;2023-05-29T13:58:44;6.53;;;3.40;;
3597;SDS011;1813;52.016;8.714;2023-05-29T14:01:18;9.43;;;3.20;;
3597;SDS011;1813;52.016;8.714;2023-05-29T14:03:54;8.13;;;3.33;;
3597;SDS011;1813;52.016;8.714;2023-05-29T14:06:28;7.23;;;3.43;;
3597;SDS011;1813;52.016;8.714;2023-05-29T14:09:02;6.90;;;3.20;;
3597;SDS011;1813;52.016;8.714;2023-05-29T14:11:42;6.47;;;3.27;;
3597;SDS011;1813;52.016;8.714;2023-05-29T14:14:16;13.13;;;3.57;;
3597;SDS011;1813;52.016;8.714;2023-05-29T14:16:50;6.33;;;3.40;;
3597;SDS011;1813;52.016;8.714;2023-05-29T14:19:24;8.93;;;3.13;;
3597;SDS011;1813;52.016;8.714;2023-05-29T14:21:58;6.80;;;3.13;;
3597;SDS011;1813;52.016;8.714;2023-05-29T14:24:32;11.77;;;3.20;;
3597;SDS011;1813;52.016;8.714;2023-05-29T14:27:09;9.73;;;3.43;;
3597;SDS011;1813;52.016;8.714;2023-05-29T14:29:42;10.07;;;3.80;;
3597;SDS011;1813;52.016;8.714;2023-05-29T14:32:16;8.23;;;3.40;;
3597;SDS011;1813;52.016;8.714;2023-05-29T14:34:51;8.37;;;3.00;;
3597;SDS011;1813;52.016;8.714;2023-05-29T14:37:24;7.57;;;3.27;;
3597;SDS011;1813;52.016;8.714;2023-05-29T14:39:58;8.73;;;3.20;;
3597;SDS011;1813;52.016;8.714;2023-05-29T14:42:35;6.10;;;3.33;;
3597;SDS011;1813;52.016;8.714;2023-05-29T14:45:08;9.90;;;3.77;;
3597;SDS011;1813;52.016;8.714;2023-05-29T14:47:43;6.83;;;3.20;;
3597;SDS011;1813;52.016;8.714;2023-05-29T14:50:17;6.00;;;2.83;;
3597;SDS011;1813;52.016;8.714;2023-05-29T14:52:51;8.93;;;3.03;;
3597;SDS011;1813;52.016;8.714;2023-05-29T14:55:25;8.83;;;2.97;;
3597;SDS011;1813;52.016;8.714;2023-05-29T14:58:03;4.27;;;2.63;;
3597;SDS011;1813;52.016;8.714;2023-05-29T15:00:37;4.73;;;2.80;;
3597;SDS011;1813;52.016;8.714;2023-05-29T15:03:11;8.53;;;3.30;;
3597;SDS011;1813;52.016;8.714;2023-05-29T15:05:45;10.20;;;3.10;;
3597;SDS011;1813;52.016;8.714;2023-05-29T15:08:19;8.83;;;2.97;;
3597;SDS011;1813;52.016;8.714;2023-05-29T15:10:53;6.60;;;2.87;;
3597;SDS011;1813;52.016;8.714;2023-05-29T15:13:29;20.03;;;3.63;;
3597;SDS011;1813;52.016;8.714;2023-05-29T15:16:03;10.80;;;3.20;;
3597;SDS011;1813;52.016;8.714;2023-05-29T15:18:37;8.40;;;3.30;;
3597;SDS011;1813;52.016;8.714;2023-05-29T15:21:11;7.37;;;2.77;;
3597;SDS011;1813;52.016;8.714;2023-05-29T15:23:45;13.20;;;6.17;;
3597;SDS011;1813;52.016;8.714;2023-05-29T15:26:19;7.70;;;3.27;;
3597;SDS011;1813;52.016;8.714;2023-05-29T15:28:55;10.47;;;3.40;;
3597;SDS011;1813;52.016;8.714;2023-05-29T15:31:29;15.00;;;3.73;;
3597;SDS011;1813;52.016;8.714;2023-05-29T15:34:03;7.70;;;3.03;;
3597;SDS011;1813;52.016;8.714;2023-05-29T15:36:37;12.00;;;3.20;;
3597;SDS011;1813;52.016;8.714;2023-05-29T15:39:11;7.90;;;3.00;;
3597;SDS011;1813;52.016;8.714;2023-05-29T15:41:45;11.67;;;3.20;;
3597;SDS011;1813;52.016;8.714;2023-05-29T15:44:21;7.40;;;3.30;;
3597;SDS011;1813;52.016;8.714;2023-05-29T15:46:55;7.97;;;3.30;;
3597;SDS011;1813;52.016;8.714;2023-05-29T15:49:28;8.43;;;3.70;;
3597;SDS011;1813;52.016;8.714;2023-05-29T15:52:03;13.67;;;3.50;;
3597;SDS011;1813;52.016;8.714;2023-05-29T15:54:38;9.80;;;3.10;;
3597;SDS011;1813;52.016;8.714;2023-05-29T15:57:12;15.63;;;2.80;;
3597;SDS011;1813;52.016;8.714;2023-05-29T15:59:48;12.17;;;3.80;;
3597;SDS011;1813;52.016;8.714;2023-05-29T16:02:22;10.77;;;3.43;;
3597;SDS011;1813;52.016;8.714;2023-05-29T16:04:56;8.43;;;3.40;;